Time;durP1;ratioP1;P1;durP2;ratioP2;P2;SDS_P1;SDS_P2;PMS_P1;PMS_P2;Temp;Humidity;BMP_temperature;BMP_pressure;BME280_temperature;BME280_humidity;BME280_pressure;Samples;Min_cycle;Max_cycle;Signal;HPM_P1;HPM_P2
2023/06/18 00:00:32;;;;;;;1.08;0.88;;;;;;;-145.06;100.00;60892.56;5886709;23;20011;-92
2023/06/18 00:03:14;;;;;;;0.85;0.77;;;;;;;-145.06;100.00;60892.56;5886091;23;20066;-92
2023/06/18 00:05:56;;;;;;;1.95;1.00;;;;;;;20.67;100.00;60892.56;5890840;23;20010;-90
2023/06/18 00:08:38;;;;;;;1.00;0.88;;;;;;;20.60;100.00;60892.56;5890756;23;20010;-93
2023/06/18 00:11:17;;;;;;;1.27;1.17;;;;;;;20.75;100.00;60892.56;5886457;23;20010;-91
2023/06/18 00:13:56;;;;;;;1.20;1.00;;;;;;;-145.06;100.00;60892.56;5888081;23;20014;-93
2023/06/18 00:16:35;;;;;;;1.15;0.75;;;;;;;-145.06;100.00;60892.56;5888306;23;20006;-92
2023/06/18 00:19:14;;;;;;;1.00;0.80;;;;;;;-145.06;100.00;60892.56;5888449;23;20086;-92
2023/06/18 00:21:53;;;;;;;1.20;0.88;;;;;;;20.49;100.00;60892.56;5888416;23;20123;-92
2023/06/18 00:24:32;;;;;;;2.10;0.98;;;;;;;20.47;100.00;60892.56;5887838;23;20014;-92
2023/06/18 00:27:12;;;;;;;1.40;0.80;;;;;;;20.46;100.00;60892.56;5888494;23;20006;-91
2023/06/18 00:29:50;;;;;;;1.50;1.05;;;;;;;-145.06;100.00;60892.56;5888226;23;20034;-93
2023/06/18 00:32:31;;;;;;;1.27;1.00;;;;;;;-145.06;100.00;60892.56;5887572;23;20006;-92
2023/06/18 00:35:14;;;;;;;;;;;;;;;-145.06;100.00;60892.56;5888472;23;20002;-93
2023/06/18 00:37:54;;;;;;;0.85;0.70;;;;;;;-145.06;100.00;60892.56;5888391;23;19905;-91
2023/06/18 00:40:33;;;;;;;1.13;0.75;;;;;;;-145.06;100.00;60892.56;5887307;23;20002;-91
2023/06/18 00:43:12;;;;;;;0.98;0.85;;;;;;;21.08;100.00;60892.56;5888384;23;20334;-92
2023/06/18 00:45:51;;;;;;;0.70;0.52;;;;;;;-145.06;100.00;60892.56;5887994;23;20014;-93
2023/06/18 00:48:35;;;;;;;1.00;0.80;;;;;;;-145.06;100.00;60892.56;5887951;23;20006;-90
2023/06/18 00:51:16;;;;;;;1.27;0.98;;;;;;;-145.06;100.00;60892.56;5888044;23;20445;-92
2023/06/18 00:53:58;;;;;;;1.20;0.80;;;;;;;-145.06;100.00;60892.56;5887149;23;20010;-92
2023/06/18 00:56:38;;;;;;;0.80;0.60;;;;;;;-145.06;100.00;60892.56;5887623;23;20026;-92
2023/06/18 00:59:22;;;;;;;1.60;0.90;;;;;;;-145.06;100.00;60892.56;5887592;23;20046;-93
2023/06/18 01:02:01;;;;;;;0.82;0.80;;;;;;;-145.06;100.00;60892.56;5887621;23;20002;-91
2023/06/18 01:04:40;;;;;;;1.00;0.90;;;;;;;-145.06;100.00;60892.56;5887546;23;20018;-91
2023/06/18 01:07:21;;;;;;;1.13;0.93;;;;;;;20.23;100.00;60892.56;5887464;23;20010;-93
2023/06/18 01:10:00;;;;;;;1.08;0.85;;;;;;;-145.06;100.00;60892.56;5887339;23;20311;-91
2023/06/18 01:12:42;;;;;;;1.43;0.83;;;;;;;-145.06;100.00;60892.56;5888152;23;20010;-92
2023/06/18 01:15:21;;;;;;;1.23;1.13;;;;;;;20.08;100.00;60892.56;5887701;23;20011;-92
2023/06/18 01:18:06;;;;;;;1.00;0.88;;;;;;;20.02;100.00;60892.56;5887663;23;20128;-92
2023/06/18 01:20:45;;;;;;;1.38;0.95;;;;;;;-145.06;100.00;60892.56;5887354;23;19999;-92
2023/06/18 01:23:27;;;;;;;;;;;;;;;-145.06;100.00;60892.56;5888185;23;20010;-93
2023/06/18 01:26:06;;;;;;;1.00;0.80;;;;;;;-145.06;100.00;60892.56;5887147;23;19905;-92
2023/06/18 01:28:45;;;;;;;1.05;0.95;;;;;;;-145.06;100.00;60892.56;5887213;23;20010;-92
2023/06/18 01:31:24;;;;;;;1.80;0.80;;;;;;;-145.06;100.00;60892.56;5887012;23;20007;-92
2023/06/18 01:34:06;;;;;;;1.10;0.85;;;;;;;-145.06;100.00;60892.56;5887599;23;20238;-91
2023/06/18 01:36:53;;;;;;;2.30;1.13;;;;;;;-145.06;100.00;60892.56;5886792;23;20010;-92
2023/06/18 01:39:45;;;;;;;1.70;1.00;;;;;;;-145.06;100.00;60892.56;5886929;23;20006;-92
2023/06/18 01:42:28;;;;;;;0.80;0.70;;;;;;;19.76;100.00;60892.56;5887626;23;20002;-91
2023/06/18 01:45:15;;;;;;;1.00;0.90;;;;;;;19.73;100.00;60892.56;5886800;23;20037;-91
2023/06/18 01:48:00;;;;;;;1.38;1.00;;;;;;;19.71;100.00;60892.56;5887722;23;20006;-93
2023/06/18 01:50:43;;;;;;;1.00;0.90;;;;;;;-145.06;100.00;60892.56;5887330;23;20418;-92
2023/06/18 01:53:25;;;;;;;1.55;1.05;;;;;;;19.67;100.00;60892.56;5887499;23;20014;-93
2023/06/18 01:56:09;;;;;;;1.38;1.17;;;;;;;19.65;100.00;60892.56;5887653;23;20086;-93
2023/06/18 01:58:48;;;;;;;1.63;1.17;;;;;;;19.62;100.00;60892.56;5886421;23;20010;-93
2023/06/18 02:01:30;;;;;;;1.27;0.90;;;;;;;19.57;100.00;60892.56;5887032;23;20002;-92
2023/06/18 02:04:09;;;;;;;1.20;1.00;;;;;;;19.55;100.00;60892.56;5887339;23;20036;-91
2023/06/18 02:06:48;;;;;;;1.05;0.90;;;;;;;19.50;100.00;60892.56;5886412;23;20006;-92
2023/06/18 02:09:27;;;;;;;1.23;0.93;;;;;;;19.48;100.00;81397.63;5887373;23;20433;-92
2023/06/18 02:12:06;;;;;;;1.17;0.97;;;;;;;-145.06;100.00;60892.56;5886553;23;20323;-91
2023/06/18 02:14:45;;;;;;;1.10;0.80;;;;;;;-145.06;100.00;60892.56;5887032;23;20006;-93
2023/06/18 02:17:26;;;;;;;1.58;0.90;;;;;;;-145.06;100.00;60892.56;5887242;23;20028;-92
2023/06/18 02:20:06;;;;;;;0.73;0.63;;;;;;;-145.06;100.00;60892.56;5886850;23;20006;-91
2023/06/18 02:22:45;;;;;;;1.80;1.00;;;;;;;-145.06;100.00;60892.56;5887023;23;20010;-92
2023/06/18 02:25:29;;;;;;;0.90;0.80;;;;;;;-145.06;100.00;60892.56;5886493;23;20017;-91
2023/06/18 02:28:10;;;;;;;1.30;1.00;;;;;;;-145.06;100.00;60892.56;5845038;23;20093;-92
2023/06/18 02:30:49;;;;;;;0.90;0.77;;;;;;;-145.06;100.00;60892.56;5888760;23;20429;-92
2023/06/18 02:33:28;;;;;;;1.03;0.80;;;;;;;-145.06;100.00;60892.56;5894865;23;20307;-91
2023/06/18 02:36:09;;;;;;;1.10;0.93;;;;;;;-145.06;100.00;60892.56;5887171;23;20242;-91
2023/06/18 02:38:52;;;;;;;1.38;0.95;;;;;;;-145.06;100.00;60892.56;5887493;23;20003;-93
2023/06/18 02:41:31;;;;;;;2.60;1.00;;;;;;;-145.06;100.00;60892.56;5886688;23;20319;-93
2023/06/18 02:44:10;;;;;;;1.10;0.93;;;;;;;-145.06;100.00;60892.56;5886810;23;20006;-92
2023/06/18 02:46:49;;;;;;;1.40;1.10;;;;;;;-145.06;100.00;60892.56;5886941;23;20239;-94
2023/06/18 02:49:28;;;;;;;1.48;1.20;;;;;;;-145.06;100.00;60892.56;5887022;23;20242;-93
2023/06/18 02:52:07;;;;;;;1.00;0.90;;;;;;;-145.06;100.00;60892.56;5886949;23;20319;-93
2023/06/18 02:54:46;;;;;;;3.00;0.75;;;;;;;-145.06;100.00;60892.56;5886310;23;20010;-94
2023/06/18 02:57:25;;;;;;;1.50;0.90;;;;;;;-145.06;100.00;60892.56;5886710;23;20003;-93
2023/06/18 03:00:08;;;;;;;1.95;1.17;;;;;;;-145.06;100.00;60892.56;5886863;23;20603;-94
2023/06/18 03:02:47;;;;;;;1.30;1.00;;;;;;;-145.06;100.00;60892.56;5886616;23;20315;-92
2023/06/18 03:05:26;;;;;;;1.30;0.90;;;;;;;-145.06;100.00;60892.56;5886879;23;20006;-91
2023/06/18 03:08:06;;;;;;;1.40;1.00;;;;;;;18.80;100.00;60892.56;5887144;23;20011;-91
2023/06/18 03:10:46;;;;;;;1.20;0.93;;;;;;;-145.06;100.00;60892.56;5886150;23;20258;-90
2023/06/18 03:13:25;;;;;;;1.00;0.80;;;;;;;-145.06;100.00;60892.56;5886836;23;20085;-91
2023/06/18 03:16:04;;;;;;;1.40;1.00;;;;;;;-145.06;100.00;60892.56;5887054;23;20006;-91
2023/06/18 03:18:43;;;;;;;1.42;0.93;;;;;;;18.52;100.00;60892.56;5887019;23;20235;-91
2023/06/18 03:21:22;;;;;;;1.05;0.90;;;;;;;-145.06;100.00;60892.56;5886485;23;20006;-90
2023/06/18 03:24:01;;;;;;;1.13;0.93;;;;;;;-145.06;100.00;60892.56;5886633;23;20010;-93
2023/06/18 03:26:41;;;;;;;1.30;1.03;;;;;;;-145.06;100.00;60892.56;5886808;23;20014;-94
2023/06/18 03:29:20;;;;;;;1.48;1.10;;;;;;;-145.06;100.00;60892.56;5886725;23;20010;-90
2023/06/18 03:31:59;;;;;;;1.88;1.00;;;;;;;18.37;100.00;60892.56;5886111;23;20002;-91
2023/06/18 03:34:42;;;;;;;1.00;0.80;;;;;;;-145.06;100.00;60892.56;5886952;23;20414;-91
2023/06/18 03:37:21;;;;;;;1.25;1.08;;;;;;;-145.06;100.00;60892.56;5886590;23;20019;-91
2023/06/18 03:40:03;;;;;;;1.15;1.00;;;;;;;-145.06;100.00;60892.56;5886298;23;20010;-92
2023/06/18 03:42:42;;;;;;;1.85;1.10;;;;;;;-145.06;100.00;60892.56;5886435;23;20006;-90
2023/06/18 03:45:21;;;;;;;0.98;0.88;;;;;;;-145.06;100.00;60892.56;5886231;23;20014;-91
2023/06/18 03:48:00;;;;;;;1.75;0.93;;;;;;;-145.06;100.00;60892.56;5886404;23;20007;-92
2023/06/18 03:50:40;;;;;;;1.10;1.00;;;;;;;-145.06;100.00;60892.56;5888355;23;20002;-91
2023/06/18 03:53:19;;;;;;;1.20;1.00;;;;;;;-145.06;100.00;60892.56;5888005;23;20006;-91
2023/06/18 03:55:58;;;;;;;1.50;1.20;;;;;;;-145.06;100.00;60892.56;5888259;23;20003;-90
2023/06/18 03:58:37;;;;;;;1.20;0.80;;;;;;;18.20;100.00;60892.56;5888382;23;20006;-91
2023/06/18 04:01:16;;;;;;;1.85;1.13;;;;;;;-145.06;100.00;60892.56;5888987;23;20246;-92
2023/06/18 04:03:59;;;;;;;1.45;1.10;;;;;;;-145.06;100.00;60892.56;5889423;23;20029;-91
2023/06/18 04:06:38;;;;;;;1.50;1.17;;;;;;;-145.06;100.00;60892.56;5888029;23;20378;-92
2023/06/18 04:09:17;;;;;;;2.25;1.20;;;;;;;-145.06;100.00;60892.56;5888726;23;20014;-93
2023/06/18 04:11:56;;;;;;;1.38;1.10;;;;;;;-145.06;100.00;60892.56;5887898;23;20307;-93
2023/06/18 04:14:38;;;;;;;1.10;1.00;;;;;;;-145.06;100.00;60892.56;5897024;23;20007;-92
2023/06/18 04:17:17;;;;;;;1.45;1.17;;;;;;;-145.06;100.00;60892.56;5897787;23;20014;-91
2023/06/18 04:20:06;;;;;;;1.20;1.00;;;;;;;-145.06;100.00;60892.56;5897737;23;20006;-91
2023/06/18 04:22:45;;;;;;;1.08;0.90;;;;;;;-145.06;100.00;60892.56;5897572;23;20430;-91
2023/06/18 04:25:27;;;;;;;0.95;0.82;;;;;;;-145.06;100.00;60892.56;5897275;23;20006;-92
2023/06/18 04:28:06;;;;;;;1.15;0.90;;;;;;;-145.06;100.00;60892.56;5896610;23;20062;-91
2023/06/18 04:30:52;;;;;;;1.33;1.08;;;;;;;-145.06;100.00;60892.56;5897753;23;20310;-91
2023/06/18 04:33:34;;;;;;;1.40;0.82;;;;;;;-145.06;100.00;60892.56;5896894;23;20014;-92
2023/06/18 04:36:16;;;;;;;1.00;0.80;;;;;;;-145.06;100.00;60892.56;5896507;23;20037;-93
2023/06/18 04:38:58;;;;;;;1.25;0.88;;;;;;;-145.06;100.00;60892.56;5897131;23;20010;-90
2023/06/18 04:41:45;;;;;;;1.30;0.80;;;;;;;-145.06;100.00;60892.56;5895971;23;20010;-92
2023/06/18 04:44:29;;;;;;;1.13;0.80;;;;;;;-145.06;100.00;60892.56;5896640;23;20006;-91
2023/06/18 04:47:10;;;;;;;1.15;0.88;;;;;;;-145.06;100.00;60892.56;5896426;23;20011;-91
2023/06/18 04:49:58;;;;;;;1.10;0.82;;;;;;;-145.06;100.00;60892.56;5896171;23;20011;-92
2023/06/18 04:52:44;;;;;;;1.20;0.90;;;;;;;-145.06;100.00;60892.56;5896291;23;20007;-92
2023/06/18 04:55:27;;;;;;;1.17;0.90;;;;;;;-145.06;100.00;60892.56;5895988;23;20006;-92
2023/06/18 04:58:15;;;;;;;1.35;0.82;;;;;;;-145.06;100.00;60892.56;5904320;23;20030;-90
2023/06/18 05:01:01;;;;;;;1.08;0.85;;;;;;;-145.06;100.00;60892.56;5899586;23;20006;-92
2023/06/18 05:03:41;;;;;;;1.17;0.90;;;;;;;-145.06;100.00;60892.56;5896835;23;20018;-91
2023/06/18 05:06:30;;;;;;;1.65;0.85;;;;;;;-145.06;100.00;60892.56;5896452;23;20006;-92
2023/06/18 05:09:12;;;;;;;1.25;1.05;;;;;;;-145.06;100.00;60892.56;5895829;23;20010;-91
2023/06/18 05:11:54;;;;;;;1.00;0.80;;;;;;;-145.06;100.00;60892.56;5895956;23;20041;-92
2023/06/18 05:14:45;;;;;;;0.93;0.75;;;;;;;-145.06;100.00;60892.56;5897055;23;20006;-91
2023/06/18 05:17:37;;;;;;;1.02;0.85;;;;;;;-145.06;100.00;60892.56;5897020;23;20011;-94
2023/06/18 05:20:19;;;;;;;0.95;0.70;;;;;;;-145.06;100.00;60892.56;5897969;23;20010;-91
2023/06/18 05:23:20;;;;;;;1.10;0.88;;;;;;;-145.06;100.00;60892.56;5895612;23;20010;-91
2023/06/18 05:26:05;;;;;;;1.05;0.82;;;;;;;-145.06;100.00;60892.56;5896712;23;20006;-91
2023/06/18 05:28:49;;;;;;;1.17;0.80;;;;;;;-145.06;100.00;60892.56;5895506;23;20014;-93
2023/06/18 05:31:48;;;;;;;1.60;1.00;;;;;;;-145.06;100.00;60892.56;5896477;23;20422;-91
2023/06/18 05:35:00;;;;;;;0.93;0.70;;;;;;;-145.06;100.00;60892.56;5897523;23;20010;-91
2023/06/18 05:37:50;;;;;;;1.15;0.90;;;;;;;-145.06;100.00;60892.56;5896737;23;20007;-91
2023/06/18 05:51:27;;;;;;;0.85;0.63;;;;;;;-145.06;100.00;60892.56;5878413;23;20007;-91
2023/06/18 05:54:13;;;;;;;1.00;0.73;;;;;;;-145.06;100.00;60892.56;5871403;23;20006;-93
2023/06/18 05:57:30;;;;;;;1.23;0.93;;;;;;;-145.06;100.00;60892.56;5869898;23;20438;-93
2023/06/18 06:00:30;;;;;;;0.90;0.80;;;;;;;19.62;100.00;60892.56;5893011;23;20030;-92
2023/06/18 06:07:14;;;;;;;0.82;0.65;;;;;;;-145.06;100.00;60892.56;5875194;23;20002;-92
2023/06/18 06:10:18;;;;;;;1.00;0.70;;;;;;;19.89;100.00;60892.56;5888895;23;20312;-93
2023/06/18 06:13:30;;;;;;;;;;;;;;;;;;;;;
2023/06/18 06:16:41;;;;;;;0.90;0.60;;;;;;;-145.06;100.00;60892.56;5879552;23;20006;-93
2023/06/18 06:19:36;;;;;;;;;;;;;;;;;;;;;
2023/06/18 06:22:54;;;;;;;;;;;;;;;;;;;;;
2023/06/18 06:26:27;;;;;;;2.40;0.70;;;;;;;-145.06;100.00;60892.56;5880026;23;20002;-91
2023/06/18 06:29:27;;;;;;;;;;;;;;;;;;;;;
2023/06/18 06:32:34;;;;;;;1.00;0.85;;;;;;;-145.06;100.00;60892.56;5879364;23;20007;-94
2023/06/18 06:35:40;;;;;;;0.85;0.75;;;;;;;-145.06;100.00;60892.56;5868732;23;20010;-92
2023/06/18 06:38:59;;;;;;;;;;;;;;;;;;;;;
2023/06/18 06:41:36;;;;;;;1.00;0.90;;;;;;;-145.06;100.00;60892.56;5868139;23;20011;-91
2023/06/18 06:44:52;;;;;;;;;;;;;;;;;;;;;
2023/06/18 06:47:34;;;;;;;0.90;0.80;;;;;;;-145.06;100.00;60892.56;5872798;23;20046;-91
2023/06/18 06:50:12;;;;;;;0.80;0.75;;;;;;;-145.06;100.00;60892.56;5856640;23;20089;-90
2023/06/18 06:52:55;;;;;;;0.93;0.77;;;;;;;-145.06;100.00;60892.56;5860290;23;20453;-90
2023/06/18 06:55:34;;;;;;;1.45;0.98;;;;;;;-145.06;100.00;60892.56;5859848;23;20453;-91
2023/06/18 06:58:20;;;;;;;0.65;0.60;;;;;;;-145.06;100.00;60892.56;5859116;23;20011;-89
2023/06/18 07:01:06;;;;;;;0.85;0.80;;;;;;;-145.06;100.00;60892.56;5858596;23;20006;-89
2023/06/18 07:03:45;;;;;;;0.90;0.70;;;;;;;-145.06;100.00;60892.56;5859218;23;20014;-90
2023/06/18 07:06:25;;;;;;;;;;;;;;;-145.06;100.00;60892.56;5878546;23;20006;-90
2023/06/18 07:09:05;;;;;;;1.00;0.70;;;;;;;-145.06;100.00;60892.56;5854174;23;20317;-90
2023/06/18 07:11:44;;;;;;;0.80;0.70;;;;;;;-145.06;100.00;60892.56;5856186;23;20011;-91
2023/06/18 07:14:26;;;;;;;2.00;0.70;;;;;;;-145.06;100.00;60892.56;5877504;23;20034;-92
2023/06/18 07:17:08;;;;;;;0.60;0.57;;;;;;;-145.06;100.00;60892.56;5857554;23;20003;-92
2023/06/18 07:19:47;;;;;;;0.80;0.77;;;;;;;-145.06;100.00;60892.56;5863759;23;20006;-90
2023/06/18 07:22:25;;;;;;;2.70;0.88;;;;;;;-145.06;100.00;60892.56;5865437;23;20427;-90
2023/06/18 07:25:06;;;;;;;1.02;0.88;;;;;;;-145.06;100.00;60892.56;5875713;23;20015;-90
2023/06/18 07:27:45;;;;;;;1.10;0.80;;;;;;;-145.06;100.00;60892.56;5860270;23;20462;-91
2023/06/18 07:30:24;;;;;;;0.63;0.60;;;;;;;-145.06;100.00;60892.56;5868932;23;20011;-93
2023/06/18 07:33:03;;;;;;;1.08;0.98;;;;;;;-145.06;100.00;60892.56;5858263;23;20018;-90
2023/06/18 07:35:41;;;;;;;1.80;0.80;;;;;;;-145.06;100.00;60892.56;5859840;23;20359;-91
2023/06/18 07:38:22;;;;;;;0.93;0.70;;;;;;;-145.06;100.00;60892.56;5860464;23;20435;-91
2023/06/18 07:41:01;;;;;;;0.90;0.70;;;;;;;-145.06;100.00;60892.56;5858927;23;20011;-93
2023/06/18 07:43:40;;;;;;;0.98;0.88;;;;;;;187.52;100.00;60892.56;5869491;23;20036;-91
2023/06/18 07:46:20;;;;;;;1.15;0.80;;;;;;;-145.06;100.00;60892.56;5879511;23;20065;-91
2023/06/18 07:49:00;;;;;;;1.15;0.98;;;;;;;-145.06;100.00;60892.56;5859572;23;20082;-93
2023/06/18 07:51:39;;;;;;;;;;;;;;;-145.06;100.00;60892.56;5859616;23;20030;-90
2023/06/18 07:54:18;;;;;;;1.38;0.90;;;;;;;-145.06;100.00;60892.56;5858673;23;19906;-92
2023/06/18 07:56:57;;;;;;;1.08;0.80;;;;;;;-145.06;100.00;60892.56;5859946;23;20023;-91
2023/06/18 07:59:36;;;;;;;1.27;0.93;;;;;;;-145.06;100.00;60892.56;5858539;23;20085;-92
2023/06/18 08:02:15;;;;;;;0.93;0.82;;;;;;;-145.06;100.00;60892.56;5858784;23;20011;-93
2023/06/18 08:04:54;;;;;;;2.33;0.93;;;;;;;-145.06;100.00;60892.56;5859363;23;20011;-92
2023/06/18 08:07:33;;;;;;;1.52;0.80;;;;;;;-145.06;100.00;60892.56;5858834;23;20014;-92
2023/06/18 08:10:12;;;;;;;0.95;0.85;;;;;;;-145.06;100.00;60892.56;5859494;23;20086;-92
2023/06/18 08:12:53;;;;;;;1.02;0.90;;;;;;;-145.06;100.00;60892.56;5859446;23;20003;-92
2023/06/18 08:15:32;;;;;;;1.40;1.20;;;;;;;-145.06;100.00;60892.56;5879022;23;20011;-92
2023/06/18 08:18:11;;;;;;;1.30;1.02;;;;;;;-145.06;100.00;60892.56;5859101;23;20011;-92
2023/06/18 08:20:50;;;;;;;1.20;1.05;;;;;;;-145.06;100.00;60892.56;5876983;23;20011;-92
2023/06/18 08:23:29;;;;;;;1.15;1.00;;;;;;;-145.06;100.00;60892.56;5859676;23;20307;-93
2023/06/18 08:26:08;;;;;;;1.73;1.30;;;;;;;62.66;100.00;60892.56;5859860;23;20007;-92
2023/06/18 08:28:47;;;;;;;2.28;1.13;;;;;;;-145.06;100.00;60892.56;5879374;23;20034;-92
2023/06/18 08:31:26;;;;;;;1.23;0.93;;;;;;;-145.06;100.00;60892.56;5858726;23;20007;-92
2023/06/18 08:34:06;;;;;;;1.75;1.10;;;;;;;-145.06;100.00;60892.56;5858749;23;20007;-90
2023/06/18 08:36:47;;;;;;;0.88;0.80;;;;;;;-145.06;100.00;60892.56;5858107;23;20315;-93
2023/06/18 08:39:26;;;;;;;1.33;1.08;;;;;;;-145.06;100.00;60892.56;5858529;23;20426;-91
2023/06/18 08:42:06;;;;;;;1.50;1.08;;;;;;;-145.06;100.00;60892.56;5858710;23;20058;-92
2023/06/18 08:44:46;;;;;;;2.85;1.00;;;;;;;-145.06;100.00;60892.56;5878952;23;20011;-92
2023/06/18 08:47:28;;;;;;;0.98;0.90;;;;;;;-145.06;100.00;60892.56;5859241;23;20038;-90
2023/06/18 08:50:13;;;;;;;1.20;1.05;;;;;;;-145.06;100.00;60892.56;5879666;23;20014;-93
2023/06/18 08:52:58;;;;;;;1.10;1.00;;;;;;;-145.06;100.00;60892.56;5858125;23;20102;-91
2023/06/18 08:55:40;;;;;;;1.83;1.00;;;;;;;-145.06;100.00;60892.56;5876684;23;19999;-92
2023/06/18 08:58:25;;;;;;;1.00;0.90;;;;;;;-145.06;100.00;60892.56;5882119;23;20027;-92
2023/06/18 09:01:04;;;;;;;1.10;1.00;;;;;;;-145.06;100.00;60892.56;5860820;23;20014;-93
2023/06/18 09:03:44;;;;;;;;;;;;;;;-145.06;100.00;60892.56;5870112;23;20423;-92
2023/06/18 09:06:23;;;;;;;1.35;0.88;;;;;;;62.66;100.00;60892.56;5858463;23;19929;-93
2023/06/18 09:09:04;;;;;;;0.68;0.63;;;;;;;-145.06;100.00;60892.56;5879100;23;20011;-92
2023/06/18 09:11:43;;;;;;;1.17;1.00;;;;;;;-145.06;100.00;60892.56;5858817;23;20011;-92
2023/06/18 09:14:24;;;;;;;0.90;0.82;;;;;;;-145.06;100.00;60892.56;5878828;23;20006;-91
2023/06/18 09:17:04;;;;;;;1.63;1.23;;;;;;;-145.06;100.00;60892.56;5857641;23;20015;-92
2023/06/18 09:19:45;;;;;;;1.30;1.15;;;;;;;-145.06;100.00;60892.56;5878250;23;20011;-92
2023/06/18 09:22:24;;;;;;;1.48;1.00;;;;;;;-145.06;100.00;60892.56;5858454;23;20011;-93
2023/06/18 09:25:03;;;;;;;1.30;1.05;;;;;;;-145.06;100.00;60892.56;5857798;23;20041;-92
2023/06/18 09:27:43;;;;;;;1.30;1.00;;;;;;;-145.06;100.00;60892.56;5859817;23;20007;-92
2023/06/18 09:30:25;;;;;;;1.73;1.10;;;;;;;-145.06;100.00;60892.56;5857733;23;20034;-93
2023/06/18 09:33:04;;;;;;;1.02;0.90;;;;;;;-145.06;100.00;60892.56;5878490;23;20015;-92
2023/06/18 09:35:43;;;;;;;2.58;1.15;;;;;;;-145.06;100.00;60892.56;5858413;23;20019;-92
2023/06/18 09:38:24;;;;;;;;;;;;;;;-145.06;100.00;60892.56;5878993;23;20015;-91
2023/06/18 09:41:18;;;;;;;0.75;0.68;;;;;;;-145.06;100.00;60892.56;5858845;23;19918;-92
2023/06/18 09:43:57;;;;;;;0.75;0.73;;;;;;;-145.06;100.00;60892.56;5878417;23;20011;-93
2023/06/18 09:46:36;;;;;;;1.40;1.00;;;;;;;-145.06;100.00;60892.56;5867739;23;20011;-93
2023/06/18 09:49:17;;;;;;;0.90;0.82;;;;;;;-145.06;100.00;60892.56;5875359;23;20015;-92
2023/06/18 09:51:56;;;;;;;1.40;1.00;;;;;;;-145.06;100.00;60892.56;5874396;23;20014;-92
2023/06/18 09:54:43;;;;;;;0.95;0.85;;;;;;;-145.06;100.00;60892.56;5869171;23;20027;-92
2023/06/18 09:57:22;;;;;;;1.10;0.90;;;;;;;104.26;100.00;60892.56;5878909;23;20003;-93
2023/06/18 10:00:11;;;;;;;1.13;0.90;;;;;;;62.66;100.00;60892.56;5877646;23;20007;-93
2023/06/18 10:02:50;;;;;;;0.95;0.85;;;;;;;-145.06;100.00;60892.56;5859448;23;20007;-92
2023/06/18 10:05:30;;;;;;;;;;;;;;;-145.06;100.00;60892.56;5858490;23;20007;-93
2023/06/18 10:08:09;;;;;;;0.68;0.68;;;;;;;-145.06;100.00;60892.56;5858145;23;19980;-93
2023/06/18 10:10:49;;;;;;;1.25;0.90;;;;;;;-145.06;100.00;60892.56;5858303;23;20355;-92
2023/06/18 10:13:29;;;;;;;0.90;0.75;;;;;;;-145.06;100.00;60892.56;5856171;23;20077;-92
2023/06/18 10:16:10;;;;;;;0.82;0.82;;;;;;;41.86;100.00;60892.56;5857179;23;20010;-92
2023/06/18 10:19:18;;;;;;;1.00;0.90;;;;;;;-145.06;100.00;60892.56;5877420;23;20426;-92
2023/06/18 10:22:00;;;;;;;1.23;1.10;;;;;;;-145.06;100.00;60892.56;5856567;23;20003;-92
2023/06/18 10:24:57;;;;;;;0.98;0.85;;;;;;;-145.06;100.00;60892.56;5857595;23;20007;-93
2023/06/18 10:27:36;;;;;;;1.05;0.70;;;;;;;-145.06;100.00;60892.56;5876515;23;20003;-90
2023/06/18 10:30:15;;;;;;;;;;;;;;;-145.06;100.00;60892.56;5856220;23;20006;-91
2023/06/18 10:32:58;;;;;;;0.70;0.70;;;;;;;-145.06;100.00;60892.56;5858193;23;19905;-93
2023/06/18 10:35:40;;;;;;;1.63;0.77;;;;;;;-145.06;100.00;60892.56;5863320;23;20011;-92
2023/06/18 10:38:20;;;;;;;0.80;0.68;;;;;;;-145.06;100.00;60892.56;5880648;23;20030;-92
2023/06/18 10:41:33;;;;;;;1.00;0.85;;;;;;;-145.06;100.00;60892.56;5860461;23;20015;-93
2023/06/18 10:44:13;;;;;;;0.73;0.63;;;;;;;-145.06;100.00;60892.56;5860847;23;20315;-93
2023/06/18 10:47:20;;;;;;;0.88;0.80;;;;;;;-145.06;100.00;60892.56;5860493;23;20010;-91
2023/06/18 10:50:02;;;;;;;0.90;0.80;;;;;;;-145.06;100.00;60892.56;5879230;23;20003;-93
2023/06/18 10:52:48;;;;;;;1.10;0.80;;;;;;;-145.06;100.00;60892.56;5878840;23;20002;-92
2023/06/18 10:55:29;;;;;;;1.05;0.80;;;;;;;29.18;100.00;60892.56;5876744;23;20304;-92
2023/06/18 10:58:08;;;;;;;0.80;0.70;;;;;;;-145.06;100.00;60892.56;5856562;23;20011;-93
2023/06/18 11:00:53;;;;;;;1.00;0.90;;;;;;;-145.06;100.00;60892.56;5857022;23;20090;-93
2023/06/18 11:03:38;;;;;;;0.60;0.60;;;;;;;-145.06;100.00;60892.56;5878665;23;20011;-94
2023/06/18 11:06:28;;;;;;;0.77;0.77;;;;;;;-145.06;100.00;60892.56;5858633;23;20007;-93
2023/06/18 11:09:14;;;;;;;0.60;0.60;;;;;;;-145.06;100.00;60892.56;5879689;23;20007;-93
2023/06/18 11:11:53;;;;;;;1.20;0.70;;;;;;;-145.06;100.00;60892.56;5859941;23;20011;-93
2023/06/18 11:14:31;;;;;;;1.08;0.80;;;;;;;-145.06;100.00;60892.56;5869801;23;20006;-94
2023/06/18 11:17:11;;;;;;;1.05;0.80;;;;;;;-145.06;100.00;60892.56;5858719;23;20520;-92
2023/06/18 11:19:50;;;;;;;1.00;0.90;;;;;;;-145.06;100.00;60892.56;5859481;23;20006;-93
2023/06/18 11:22:30;;;;;;;;;;;;;;;-145.06;100.00;60892.56;5879692;23;20438;-93
2023/06/18 11:25:11;;;;;;;0.60;0.60;;;;;;;-145.06;100.00;60892.56;5859314;23;19906;-93
2023/06/18 11:27:54;;;;;;;0.70;0.70;;;;;;;-145.06;100.00;60892.56;5879926;23;20312;-94
2023/06/18 11:30:33;;;;;;;1.35;0.90;;;;;;;-145.06;100.00;60892.56;5859233;23;20015;-93
2023/06/18 11:33:12;;;;;;;1.10;1.00;;;;;;;-145.06;100.00;60892.56;5859600;23;20010;-93
2023/06/18 11:35:52;;;;;;;1.67;1.25;;;;;;;-145.06;100.00;60892.56;5858922;23;20011;-92
2023/06/18 11:38:32;;;;;;;1.20;1.10;;;;;;;-145.06;100.00;60892.56;5859355;23;20026;-94
2023/06/18 11:41:11;;;;;;;1.40;1.15;;;;;;;-145.06;100.00;60892.56;5879436;23;20494;-93
2023/06/18 11:43:51;;;;;;;1.30;1.10;;;;;;;-145.06;100.00;60892.56;5879214;23;20007;-93
2023/06/18 11:46:36;;;;;;;2.65;0.80;;;;;;;-145.06;100.00;60892.56;5869457;23;20015;-93
2023/06/18 11:49:18;;;;;;;0.82;0.75;;;;;;;-145.06;100.00;60892.56;5858605;23;20031;-94
2023/06/18 11:51:58;;;;;;;0.90;0.80;;;;;;;-145.06;100.00;60892.56;5859241;23;20375;-93
2023/06/18 11:54:39;;;;;;;0.80;0.80;;;;;;;-145.06;100.00;60892.56;5879617;23;20439;-93
2023/06/18 11:57:20;;;;;;;0.82;0.73;;;;;;;-145.06;100.00;60892.56;5858924;23;20011;-95
2023/06/18 11:59:59;;;;;;;0.98;0.77;;;;;;;-145.06;100.00;60892.56;5879490;23;20007;-95
2023/06/18 12:02:40;;;;;;;1.00;0.90;;;;;;;-145.06;100.00;60892.56;5858994;23;20466;-95
2023/06/18 12:05:19;;;;;;;1.05;0.90;;;;;;;-145.06;100.00;60892.56;5858969;23;20006;-94
2023/06/18 12:08:07;;;;;;;0.82;0.80;;;;;;;-145.06;100.00;60892.56;5858738;23;20002;-94
2023/06/18 12:10:47;;;;;;;1.02;0.73;;;;;;;-145.06;100.00;60892.56;5860328;23;20007;-92
2023/06/18 12:13:41;;;;;;;0.93;0.85;;;;;;;-145.06;100.00;60892.56;5883680;23;20319;-92
2023/06/18 12:16:25;;;;;;;0.88;0.80;;;;;;;-145.06;100.00;60892.56;5902286;23;19991;-91
2023/06/18 12:19:06;;;;;;;1.00;0.75;;;;;;;187.52;100.00;60892.56;5872432;23;20010;-94
2023/06/18 12:21:46;;;;;;;1.25;1.10;;;;;;;-145.06;100.00;60892.56;5861017;23;20006;-93
2023/06/18 12:24:28;;;;;;;0.82;0.82;;;;;;;-145.06;100.00;60892.56;5861490;23;20038;-92
2023/06/18 12:27:07;;;;;;;1.05;0.93;;;;;;;-145.06;100.00;60892.56;5890096;23;20192;-93
2023/06/18 12:32:16;;;;;;;0.98;0.90;;;;;;;-145.06;100.00;60892.56;5888184;23;20045;-91
2023/06/18 12:34:55;;;;;;;1.13;0.90;;;;;;;-145.06;100.00;60892.56;5889301;23;20010;-93
2023/06/18 12:37:36;;;;;;;2.00;0.90;;;;;;;-145.06;100.00;60892.56;5888411;23;20010;-93
2023/06/18 12:40:20;;;;;;;0.95;0.80;;;;;;;-145.06;100.00;60892.56;5888292;23;20002;-93
2023/06/18 12:43:07;;;;;;;1.38;0.80;;;;;;;-145.06;100.00;60892.56;5888578;23;20011;-93
2023/06/18 12:45:47;;;;;;;0.85;0.73;;;;;;;-145.06;100.00;60892.56;5888418;23;20477;-92
2023/06/18 12:48:29;;;;;;;1.27;1.05;;;;;;;-145.06;100.00;60892.56;5889004;23;20011;-93
2023/06/18 12:51:08;;;;;;;1.40;0.90;;;;;;;-145.06;100.00;60892.56;5887861;23;20326;-92